createdAt,value
2023-01-10T00:02:35.531Z,6.10
2023-01-10T00:06:24.740Z,5.70
2023-01-10T00:10:13.827Z,4.60
2023-01-10T00:14:02.914Z,6.20
2023-01-10T00:17:44.322Z,4.70
2023-01-10T00:21:33.421Z,4.40
2023-01-10T00:25:22.530Z,5.20
2023-01-10T00:29:11.608Z,4.90
2023-01-10T00:33:00.716Z,4.80
2023-01-10T00:36:49.798Z,5.40
2023-01-10T00:40:38.883Z,5.20
2023-01-10T00:44:27.916Z,5.10
2023-01-10T00:48:17.000Z,4.50
2023-01-10T00:52:06.087Z,4.90
2023-01-10T00:55:55.148Z,4.60
2023-01-10T00:59:44.246Z,4.80
2023-01-10T01:03:33.394Z,4.60
2023-01-10T01:07:22.469Z,5.20
2023-01-10T01:11:11.536Z,4.70
2023-01-10T01:15:00.600Z,5.10
2023-01-10T01:18:49.718Z,4.70
2023-01-10T01:22:38.815Z,4.30
2023-01-10T01:26:27.875Z,5.40
2023-01-10T01:30:16.953Z,4.50
2023-01-10T01:34:05.999Z,4.60
2023-01-10T01:37:55.126Z,4.60
2023-01-10T01:41:42.567Z,4.30
2023-01-10T01:45:43.606Z,4.20
2023-01-10T01:49:38.629Z,4.20
2023-01-10T01:53:27.721Z,4.80
2023-01-10T01:57:25.750Z,4.90
2023-01-10T02:01:15.052Z,4.40
2023-01-10T02:05:04.156Z,5.30
2023-01-10T02:08:56.432Z,4.40
2023-01-10T02:12:45.514Z,4.30
2023-01-10T02:16:34.894Z,4.70
2023-01-10T02:20:25.497Z,5.60
2023-01-10T02:24:22.643Z,5.10
2023-01-10T02:28:20.713Z,5.60
2023-01-10T02:32:18.806Z,6.40
2023-01-10T02:36:33.994Z,7.90
2023-01-10T02:40:28.921Z,5.40
2023-01-10T02:44:27.015Z,5.30
2023-01-10T02:48:16.081Z,4.40
2023-01-10T02:52:05.242Z,4.30
2023-01-10T02:55:54.402Z,4.40
2023-01-10T02:59:46.491Z,4.30
2023-01-10T03:03:41.292Z,6.00
2023-01-10T03:07:39.365Z,5.60
2023-01-10T03:11:28.471Z,4.40
2023-01-10T03:15:17.535Z,3.60
2023-01-10T03:19:09.340Z,3.90
2023-01-10T03:22:58.433Z,3.60
2023-01-10T03:26:47.525Z,6.50
2023-01-10T03:30:51.674Z,5.40
2023-01-10T03:34:40.747Z,3.90
2023-01-10T03:38:35.920Z,3.80
2023-01-10T03:42:43.165Z,3.90
2023-01-10T03:46:32.273Z,3.80
2023-01-10T03:50:21.448Z,3.80
2023-01-10T03:54:10.510Z,3.00
2023-01-10T03:57:59.671Z,4.00
2023-01-10T04:01:48.856Z,4.70
2023-01-10T04:05:38.164Z,3.40
2023-01-10T04:09:27.289Z,3.60
2023-01-10T04:13:16.405Z,3.80
2023-01-10T04:17:05.482Z,3.90
2023-01-10T04:20:54.549Z,3.70
2023-01-10T04:24:43.615Z,4.00
2023-01-10T04:28:32.820Z,3.90
2023-01-10T04:32:21.964Z,5.30
2023-01-10T04:36:11.020Z,4.20
2023-01-10T04:40:00.181Z,4.10
2023-01-10T04:43:49.220Z,4.10
2023-01-10T04:47:38.777Z,4.20
2023-01-10T04:51:33.533Z,4.30
2023-01-10T04:55:22.598Z,2.90
2023-01-10T04:59:17.490Z,3.40
2023-01-10T05:03:06.650Z,3.20
2023-01-10T05:06:55.943Z,3.70
2023-01-10T05:10:45.112Z,3.90
2023-01-10T05:14:34.152Z,4.30
2023-01-10T05:18:23.238Z,3.90
2023-01-10T05:22:12.303Z,3.40
2023-01-10T05:26:01.381Z,5.00
2023-01-10T05:29:50.446Z,4.50
2023-01-10T05:33:39.548Z,3.70
2023-01-10T05:37:28.617Z,4.20
2023-01-10T05:41:17.707Z,4.70
2023-01-10T05:45:06.747Z,4.40
2023-01-10T05:48:55.834Z,4.40
2023-01-10T05:52:44.928Z,4.80
2023-01-10T05:56:33.973Z,5.60
2023-01-10T06:00:24.955Z,5.70
2023-01-10T06:04:14.600Z,6.00
2023-01-10T06:08:03.836Z,5.20
2023-01-10T06:11:52.903Z,5.00
2023-01-10T06:15:42.026Z,10.80
2023-01-10T06:19:23.702Z,12.20
2023-01-10T06:23:12.755Z,12.50
2023-01-10T06:27:01.831Z,12.40
2023-01-10T06:30:51.151Z,12.30
2023-01-10T06:34:40.282Z,15.20
2023-01-10T06:38:29.510Z,12.60
2023-01-10T06:42:18.599Z,14.30
2023-01-10T06:46:07.781Z,13.50
2023-01-10T06:49:56.885Z,16.60
2023-01-10T06:53:45.993Z,13.60
2023-01-10T06:57:35.041Z,14.60
2023-01-10T07:01:24.348Z,18.00
2023-01-10T07:05:13.549Z,22.30
2023-01-10T07:09:02.606Z,36.70
2023-01-10T07:12:51.698Z,26.90
2023-01-10T07:16:43.562Z,26.50
2023-01-10T07:20:32.622Z,25.10
2023-01-10T07:24:21.658Z,20.90
2023-01-10T07:28:10.767Z,22.10
2023-01-10T07:31:59.818Z,21.70
2023-01-10T07:35:48.975Z,22.90
2023-01-10T07:39:38.131Z,18.00
2023-01-10T07:43:27.186Z,17.00
2023-01-10T07:47:16.257Z,22.80
2023-01-10T07:51:05.693Z,18.40
2023-01-10T07:54:54.763Z,19.00
2023-01-10T07:58:43.878Z,24.90
2023-01-10T08:02:32.935Z,21.00
2023-01-10T08:06:22.259Z,17.20
2023-01-10T08:10:11.469Z,10.30
2023-01-10T08:14:00.576Z,9.50
2023-01-10T08:17:49.656Z,9.90
2023-01-10T08:21:38.690Z,18.00
2023-01-10T08:25:27.851Z,15.20
2023-01-10T08:29:16.964Z,8.80
2023-01-10T08:33:06.068Z,6.80
2023-01-10T08:36:55.108Z,6.90
2023-01-10T08:40:44.542Z,8.20
2023-01-10T08:44:33.675Z,6.00
2023-01-10T08:48:22.759Z,4.70
2023-01-10T08:52:11.878Z,6.50
2023-01-10T08:56:00.966Z,13.20
2023-01-10T08:59:50.040Z,16.80
2023-01-10T09:03:39.127Z,16.10
2023-01-10T09:07:28.222Z,13.00
2023-01-10T09:11:17.324Z,14.20
2023-01-10T09:15:06.379Z,14.90
2023-01-10T09:18:58.302Z,16.90
2023-01-10T09:22:47.340Z,13.60
2023-01-10T09:26:36.411Z,16.10
2023-01-10T09:30:25.481Z,15.00
2023-01-10T09:34:14.668Z,17.70
2023-01-10T09:38:03.749Z,17.00
2023-01-10T09:41:55.646Z,18.20
2023-01-10T09:45:53.468Z,16.40
2023-01-10T09:50:09.883Z,15.50
2023-01-10T09:54:10.693Z,13.70
2023-01-10T09:57:54.853Z,12.90
2023-01-10T10:01:55.751Z,11.50
2023-01-10T10:06:00.815Z,9.40
2023-01-10T10:09:56.363Z,5.60
2023-01-10T10:13:51.131Z,6.60
2023-01-10T10:17:57.307Z,4.80
2023-01-10T10:21:55.284Z,4.70
2023-01-10T10:26:05.942Z,4.20
2023-01-10T10:30:13.300Z,4.70
2023-01-10T10:37:34.341Z,3.90
2023-01-10T10:41:23.382Z,3.80
2023-01-10T10:45:25.548Z,4.20
2023-01-10T10:49:18.783Z,3.70
2023-01-10T10:53:07.768Z,3.80
2023-01-10T10:56:56.866Z,6.10
2023-01-10T11:00:44.766Z,5.20
2023-01-10T11:04:42.157Z,5.80
2023-01-10T11:08:34.044Z,5.20
2023-01-10T11:12:18.786Z,4.60
2023-01-10T11:16:20.210Z,7.10
2023-01-10T11:20:21.490Z,6.60
2023-01-10T11:24:10.552Z,6.80
2023-01-10T11:27:59.673Z,10.90
2023-01-10T11:31:48.751Z,9.30
2023-01-10T11:35:37.872Z,13.20
2023-01-10T11:39:26.998Z,10.40
2023-01-10T11:43:25.111Z,11.30
2023-01-10T11:47:14.172Z,10.10
2023-01-10T11:51:05.986Z,11.00
2023-01-10T11:54:59.441Z,10.60
2023-01-10T11:58:48.504Z,10.80
2023-01-10T12:02:40.535Z,15.30
2023-01-10T12:06:28.517Z,10.50
2023-01-10T12:10:35.992Z,11.10
2023-01-10T12:14:27.897Z,9.00
2023-01-10T12:18:18.085Z,8.80
2023-01-10T12:22:22.305Z,7.40
2023-01-10T12:26:23.223Z,9.10
2023-01-10T12:30:30.738Z,8.30
2023-01-10T12:34:19.868Z,8.70
2023-01-10T12:38:17.823Z,8.20
2023-01-10T12:42:09.854Z,7.90
2023-01-10T12:46:12.815Z,8.80
2023-01-10T12:50:04.020Z,7.90
2023-01-10T12:53:58.828Z,9.80
2023-01-10T12:57:48.326Z,11.80
2023-01-10T13:01:38.560Z,11.80
2023-01-10T13:05:27.741Z,13.70
2023-01-10T13:09:16.885Z,12.70
2023-01-10T13:13:08.709Z,10.70
2023-01-10T13:17:03.536Z,8.90
2023-01-10T13:21:04.576Z,11.60
2023-01-10T13:24:56.624Z,9.30
2023-01-10T13:28:48.772Z,10.60
2023-01-10T13:32:37.931Z,10.10
2023-01-10T13:36:27.036Z,10.80
2023-01-10T13:40:18.977Z,13.10
2023-01-10T13:44:25.084Z,11.60
2023-01-10T13:48:19.943Z,13.80
2023-01-10T13:52:14.998Z,10.00
2023-01-10T13:56:06.894Z,17.20
2023-01-10T14:00:11.018Z,11.30
2023-01-10T14:03:58.397Z,12.50
2023-01-10T14:07:47.707Z,11.40
2023-01-10T14:11:45.779Z,13.20
2023-01-10T14:15:34.910Z,12.60
2023-01-10T14:19:24.002Z,15.20
2023-01-10T14:23:34.415Z,12.80
2023-01-10T14:27:26.665Z,9.50
2023-01-10T14:31:24.856Z,10.10
2023-01-10T14:35:13.939Z,12.60
2023-01-10T14:39:05.693Z,13.10
2023-01-10T14:42:54.773Z,12.40
2023-01-10T14:46:58.581Z,19.70
2023-01-10T14:51:03.017Z,20.70
2023-01-10T14:55:00.886Z,20.50
2023-01-10T14:58:52.716Z,21.30
2023-01-10T15:02:41.839Z,22.40
2023-01-10T15:06:34.123Z,24.20
2023-01-10T15:10:23.530Z,26.70
2023-01-10T15:14:12.631Z,30.80
2023-01-10T15:18:01.689Z,29.90
2023-01-10T15:21:53.394Z,34.40
2023-01-10T15:25:45.307Z,41.20
2023-01-10T15:29:43.917Z,46.40
2023-01-10T15:33:33.284Z,38.00
2023-01-10T15:37:31.313Z,32.60
2023-01-10T15:41:20.507Z,41.20
2023-01-10T15:45:27.762Z,40.10
2023-01-10T15:53:00.226Z,42.30
2023-01-10T15:56:52.133Z,48.60
2023-01-10T16:00:41.358Z,46.70
2023-01-10T16:04:30.461Z,57.30
2023-01-10T16:08:22.224Z,47.80
2023-01-10T16:12:15.389Z,46.30
2023-01-10T16:16:07.118Z,45.90
2023-01-10T16:19:56.248Z,36.90
2023-01-10T16:23:45.332Z,41.10
2023-01-10T16:27:34.443Z,37.90
2023-01-10T16:31:23.546Z,35.70
2023-01-10T16:35:12.698Z,38.70
2023-01-10T16:39:01.793Z,37.00
2023-01-10T16:42:49.361Z,37.20
2023-01-10T16:46:38.441Z,48.30
2023-01-10T16:50:27.586Z,51.90
2023-01-10T16:54:16.655Z,50.60
2023-01-10T16:58:05.723Z,43.90
2023-01-10T17:01:54.918Z,55.50
2023-01-10T17:05:44.180Z,53.70
2023-01-10T17:09:33.317Z,45.00
2023-01-10T17:13:22.407Z,51.50
2023-01-10T17:17:11.477Z,50.00
2023-01-10T17:21:00.539Z,49.30
2023-01-10T17:24:49.624Z,47.70
2023-01-10T17:28:38.679Z,48.20
2023-01-10T17:32:27.765Z,38.90
2023-01-10T17:36:19.765Z,39.60
2023-01-10T17:40:08.930Z,40.90
2023-01-10T17:43:57.988Z,32.70
2023-01-10T17:47:47.048Z,35.80
2023-01-10T17:51:36.128Z,44.30
2023-01-10T17:55:25.221Z,41.00
2023-01-10T17:59:14.403Z,34.70
2023-01-10T18:03:03.618Z,35.20
2023-01-10T18:06:52.802Z,48.90
2023-01-10T18:10:41.874Z,40.40
2023-01-10T18:14:29.532Z,35.60
2023-01-10T18:18:18.662Z,33.50
2023-01-10T18:22:07.967Z,30.60
2023-01-10T18:25:57.045Z,32.30
2023-01-10T18:29:46.250Z,32.50
2023-01-10T18:33:35.754Z,19.40
2023-01-10T18:37:24.793Z,23.30
2023-01-10T18:41:13.965Z,35.60
2023-01-10T18:45:03.061Z,41.70
2023-01-10T18:48:52.186Z,53.20
2023-01-10T18:52:41.269Z,51.80
2023-01-10T18:56:32.820Z,46.30
2023-01-10T19:00:21.882Z,50.60
2023-01-10T19:04:11.420Z,45.30
2023-01-10T19:08:00.537Z,42.00
2023-01-10T19:11:49.590Z,43.50
2023-01-10T19:15:38.363Z,44.00
2023-01-10T19:19:30.035Z,43.00
2023-01-10T19:23:19.146Z,41.20
2023-01-10T19:27:08.175Z,42.30
2023-01-10T19:31:04.029Z,42.10
2023-01-10T19:38:22.861Z,43.60
2023-01-10T19:42:11.925Z,37.80
2023-01-10T19:46:00.990Z,43.60
2023-01-10T19:49:50.083Z,42.20
2023-01-10T19:53:39.189Z,41.10
2023-01-10T19:57:28.284Z,42.10
2023-01-10T20:01:17.497Z,40.30
2023-01-10T20:05:06.596Z,37.90
2023-01-10T20:08:55.974Z,41.00
2023-01-10T20:12:45.376Z,42.60
2023-01-10T20:16:34.514Z,52.70
2023-01-10T20:20:23.568Z,41.60
2023-01-10T20:24:12.664Z,41.10
2023-01-10T20:28:01.718Z,44.90
2023-01-10T20:31:50.757Z,43.70
2023-01-10T20:35:39.848Z,45.10
2023-01-10T20:39:28.956Z,43.40
2023-01-10T20:43:18.021Z,43.80
2023-01-10T20:47:07.116Z,37.60
2023-01-10T20:50:56.301Z,40.70
2023-01-10T20:54:45.374Z,40.60
2023-01-10T20:58:34.123Z,44.60
2023-01-10T21:02:23.262Z,44.50
2023-01-10T21:06:12.350Z,47.40
2023-01-10T21:10:01.422Z,52.20
2023-01-10T21:13:50.491Z,57.60
2023-01-10T21:17:39.540Z,53.60
2023-01-10T21:21:28.602Z,53.10
2023-01-10T21:25:17.682Z,25.30
2023-01-10T21:29:11.533Z,9.90
2023-01-10T21:33:01.727Z,9.00
2023-01-10T21:36:53.685Z,9.90
2023-01-10T21:40:42.832Z,4.70
2023-01-10T21:44:31.918Z,2.60
2023-01-10T21:48:21.003Z,2.50
2023-01-10T21:52:10.094Z,1.90
2023-01-10T21:55:59.198Z,1.70
2023-01-10T21:59:48.304Z,2.40
2023-01-10T22:03:37.423Z,2.30
2023-01-10T22:07:26.509Z,1.80
2023-01-10T22:11:15.563Z,1.80
2023-01-10T22:15:04.645Z,2.30
2023-01-10T22:18:53.766Z,1.70
2023-01-10T22:22:42.850Z,1.90
2023-01-10T22:26:37.783Z,1.70
2023-01-10T22:30:26.906Z,1.60
2023-01-10T22:34:15.993Z,1.20
2023-01-10T22:38:05.022Z,1.90
2023-01-10T22:41:56.794Z,1.40
2023-01-10T22:45:46.010Z,1.20
2023-01-10T22:49:35.210Z,1.70
2023-01-10T22:53:24.365Z,2.40
2023-01-10T22:57:13.381Z,1.80
2023-01-10T23:01:02.468Z,1.80
2023-01-10T23:04:51.560Z,1.60
2023-01-10T23:08:40.609Z,1.70
2023-01-10T23:12:29.774Z,1.60
2023-01-10T23:16:18.866Z,1.80
2023-01-10T23:20:07.957Z,2.10
2023-01-10T23:23:57.054Z,1.50
2023-01-10T23:27:46.247Z,1.10
2023-01-10T23:31:35.365Z,1.20
2023-01-10T23:35:24.477Z,1.80
2023-01-10T23:39:06.077Z,1.10
2023-01-10T23:42:55.126Z,1.30
2023-01-10T23:46:44.214Z,0.90
2023-01-10T23:50:33.302Z,1.00
2023-01-10T23:54:22.359Z,1.00
2023-01-10T23:58:11.444Z,0.80
